sensor_id;sensor_type;location;lat;lon;timestamp;pressure;altitude;pressure_sealevel;temperature;humidity
43312;BME280;30041;48.300;16.352;2023-02-19T00:01:32;99884.53;;;22.63;41.88
43312;BME280;30041;48.300;16.352;2023-02-19T00:04:01;99894.53;;;22.63;41.99
43312;BME280;30041;48.300;16.352;2023-02-19T00:06:28;99890.16;;;22.62;41.91
43312;BME280;30041;48.300;16.352;2023-02-19T00:08:54;99896.16;;;22.64;41.91
43312;BME280;30041;48.300;16.352;2023-02-19T00:11:25;99895.13;;;22.65;41.76
43312;BME280;30041;48.300;16.352;2023-02-19T00:13:53;99892.66;;;22.63;41.88
43312;BME280;30041;48.300;16.352;2023-02-19T00:16:21;99900.53;;;22.65;41.84
43312;BME280;30041;48.300;16.352;2023-02-19T00:18:47;99899.94;;;22.63;41.97
43312;BME280;30041;48.300;16.352;2023-02-19T00:21:13;99902.63;;;22.63;41.98
43312;BME280;30041;48.300;16.352;2023-02-19T00:23:39;99908.53;;;22.59;42.12
43312;BME280;30041;48.300;16.352;2023-02-19T00:26:08;99912.03;;;22.60;41.86
43312;BME280;30041;48.300;16.352;2023-02-19T00:28:34;99921.78;;;22.61;42.12
43312;BME280;30041;48.300;16.352;2023-02-19T00:31:24;99922.50;;;22.56;42.12
43312;BME280;30041;48.300;16.352;2023-02-19T00:33:53;99920.97;;;22.61;41.80
43312;BME280;30041;48.300;16.352;2023-02-19T00:36:20;99928.25;;;22.60;41.78
43312;BME280;30041;48.300;16.352;2023-02-19T00:38:47;99919.34;;;22.59;41.70
43312;BME280;30041;48.300;16.352;2023-02-19T00:41:14;99929.56;;;22.57;41.83
43312;BME280;30041;48.300;16.352;2023-02-19T00:43:40;99935.78;;;22.58;42.06
43312;BME280;30041;48.300;16.352;2023-02-19T00:46:05;99936.59;;;22.58;41.95
43312;BME280;30041;48.300;16.352;2023-02-19T00:48:30;99936.59;;;22.58;42.07
43312;BME280;30041;48.300;16.352;2023-02-19T00:50:56;99925.78;;;22.58;41.68
43312;BME280;30041;48.300;16.352;2023-02-19T00:53:21;99930.38;;;22.58;41.84
43312;BME280;30041;48.300;16.352;2023-02-19T00:55:47;99925.78;;;22.58;41.78
43312;BME280;30041;48.300;16.352;2023-02-19T00:58:12;99928.72;;;22.57;41.81
43312;BME280;30041;48.300;16.352;2023-02-19T01:00:38;99918.75;;;22.57;41.97
43312;BME280;30041;48.300;16.352;2023-02-19T01:03:03;99930.94;;;22.60;41.68
43312;BME280;30041;48.300;16.352;2023-02-19T01:05:29;99917.09;;;22.56;41.78
43312;BME280;30041;48.300;16.352;2023-02-19T01:07:54;99932.72;;;22.54;41.76
43312;BME280;30041;48.300;16.352;2023-02-19T01:10:20;99922.50;;;22.56;41.87
43312;BME280;30041;48.300;16.352;2023-02-19T01:12:45;99922.25;;;22.58;41.81
43312;BME280;30041;48.300;16.352;2023-02-19T01:15:11;99930.81;;;22.55;41.97
43312;BME280;30041;48.300;16.352;2023-02-19T01:17:36;99924.59;;;22.54;41.94
43312;BME280;30041;48.300;16.352;2023-02-19T01:20:02;99921.09;;;22.54;41.76
43312;BME280;30041;48.300;16.352;2023-02-19T01:22:27;99930.00;;;22.54;41.66
43312;BME280;30041;48.300;16.352;2023-02-19T01:24:53;99930.00;;;22.54;41.97
43312;BME280;30041;48.300;16.352;2023-02-19T01:27:18;99917.81;;;22.52;41.74
43312;BME280;30041;48.300;16.352;2023-02-19T01:29:44;99914.88;;;22.53;41.92
43312;BME280;30041;48.300;16.352;2023-02-19T01:32:09;99904.06;;;22.53;41.86
43312;BME280;30041;48.300;16.352;2023-02-19T01:34:35;99902.66;;;22.51;41.95
43312;BME280;30041;48.300;16.352;2023-02-19T01:37:00;99905.56;;;22.61;41.89
43312;BME280;30041;48.300;16.352;2023-02-19T01:39:25;99899.75;;;22.81;41.11
43312;BME280;30041;48.300;16.352;2023-02-19T01:41:51;99898.09;;;22.92;41.25
43312;BME280;30041;48.300;16.352;2023-02-19T01:46:43;99902.88;;;23.02;40.95
43312;BME280;30041;48.300;16.352;2023-02-19T01:49:15;99888.31;;;23.03;41.01
43312;BME280;30041;48.300;16.352;2023-02-19T01:52:10;99879.72;;;23.06;40.64
43312;BME280;30041;48.300;16.352;2023-02-19T01:54:39;99873.84;;;23.09;40.84
43312;BME280;30041;48.300;16.352;2023-02-19T01:57:12;99875.13;;;23.06;41.03
43312;BME280;30041;48.300;16.352;2023-02-19T01:59:40;99877.13;;;23.11;41.08
43312;BME280;30041;48.300;16.352;2023-02-19T02:02:06;99874.97;;;23.13;40.63
43312;BME280;30041;48.300;16.352;2023-02-19T02:04:32;99870.41;;;23.13;41.07
43312;BME280;30041;48.300;16.352;2023-02-19T02:07:00;99866.63;;;23.14;40.80
43312;BME280;30041;48.300;16.352;2023-02-19T02:09:28;99861.00;;;23.16;40.89
43312;BME280;30041;48.300;16.352;2023-02-19T02:11:55;99865.59;;;23.15;40.61
43312;BME280;30041;48.300;16.352;2023-02-19T02:14:24;99862.38;;;23.18;40.61
43312;BME280;30041;48.300;16.352;2023-02-19T02:22:14;99851.91;;;23.22;40.83
43312;BME280;30041;48.300;16.352;2023-02-19T02:25:15;99845.66;;;23.21;40.86
43312;BME280;30041;48.300;16.352;2023-02-19T02:30:57;99851.41;;;23.25;40.74
43312;BME280;30041;48.300;16.352;2023-02-19T02:33:46;99842.72;;;23.23;40.79
43312;BME280;30041;48.300;16.352;2023-02-19T02:36:34;99839.19;;;23.23;40.54
43312;BME280;30041;48.300;16.352;2023-02-19T02:39:02;99836.00;;;23.26;40.69
43312;BME280;30041;48.300;16.352;2023-02-19T02:41:31;99827.88;;;23.26;40.57
43312;BME280;30041;48.300;16.352;2023-02-19T02:43:57;99823.28;;;23.26;40.59
43312;BME280;30041;48.300;16.352;2023-02-19T02:46:32;99824.94;;;23.27;40.63
43312;BME280;30041;48.300;16.352;2023-02-19T02:49:01;99824.38;;;23.25;40.83
43312;BME280;30041;48.300;16.352;2023-02-19T02:51:31;99811.19;;;23.29;40.66
43312;BME280;30041;48.300;16.352;2023-02-19T02:54:09;99812.25;;;23.28;40.58
43312;BME280;30041;48.300;16.352;2023-02-19T02:56:37;99804.94;;;23.28;40.59
43312;BME280;30041;48.300;16.352;2023-02-19T02:59:05;99810.94;;;23.30;40.66
43312;BME280;30041;48.300;16.352;2023-02-19T03:01:42;99799.28;;;23.30;40.38
43312;BME280;30041;48.300;16.352;2023-02-19T03:04:14;99797.41;;;23.30;40.38
43312;BME280;30041;48.300;16.352;2023-02-19T03:06:43;99798.78;;;23.33;40.37
43312;BME280;30041;48.300;16.352;2023-02-19T03:09:21;99801.75;;;23.31;40.77
43312;BME280;30041;48.300;16.352;2023-02-19T03:11:49;99796.94;;;23.33;40.83
43312;BME280;30041;48.300;16.352;2023-02-19T03:14:24;99786.94;;;23.34;40.44
43312;BME280;30041;48.300;16.352;2023-02-19T03:16:55;99793.38;;;23.33;40.53
43312;BME280;30041;48.300;16.352;2023-02-19T03:19:24;99795.84;;;23.34;40.52
43312;BME280;30041;48.300;16.352;2023-02-19T03:22:15;99796.66;;;23.35;40.37
43312;BME280;30041;48.300;16.352;2023-02-19T03:24:51;99798.91;;;23.38;40.55
43312;BME280;30041;48.300;16.352;2023-02-19T03:27:19;99804.31;;;23.38;40.30
43312;BME280;30041;48.300;16.352;2023-02-19T03:29:47;99795.13;;;23.39;40.53
43312;BME280;30041;48.300;16.352;2023-02-19T03:32:19;99802.41;;;23.38;40.47
43312;BME280;30041;48.300;16.352;2023-02-19T03:35:20;99803.22;;;23.39;40.50
43312;BME280;30041;48.300;16.352;2023-02-19T03:40:30;99811.34;;;23.39;40.23
43312;BME280;30041;48.300;16.352;2023-02-19T03:45:40;99810.28;;;23.40;40.39
43312;BME280;30041;48.300;16.352;2023-02-19T03:57:51;99805.69;;;23.40;40.27
43312;BME280;30041;48.300;16.352;2023-02-19T04:00:19;99804.03;;;23.39;40.74
43312;BME280;30041;48.300;16.352;2023-02-19T04:02:52;99801.09;;;23.41;40.61
43312;BME280;30041;48.300;16.352;2023-02-19T04:05:25;99800.03;;;23.42;40.33
43312;BME280;30041;48.300;16.352;2023-02-19T04:07:53;99806.84;;;23.45;40.32
43312;BME280;30041;48.300;16.352;2023-02-19T04:10:20;99800.59;;;23.44;40.49
43312;BME280;30041;48.300;16.352;2023-02-19T04:12:58;99806.00;;;23.44;40.40
43312;BME280;30041;48.300;16.352;2023-02-19T04:15:29;99794.38;;;23.44;40.33
43312;BME280;30041;48.300;16.352;2023-02-19T04:18:07;99796.25;;;23.43;40.50
43312;BME280;30041;48.300;16.352;2023-02-19T04:20:40;99798.97;;;23.43;40.16
43312;BME280;30041;48.300;16.352;2023-02-19T04:23:07;99792.25;;;23.46;40.53
43312;BME280;30041;48.300;16.352;2023-02-19T04:25:34;99792.25;;;23.46;40.46
43312;BME280;30041;48.300;16.352;2023-02-19T04:28:01;99795.75;;;23.46;40.41
43312;BME280;30041;48.300;16.352;2023-02-19T04:30:26;99793.31;;;23.45;40.32
43312;BME280;30041;48.300;16.352;2023-02-19T04:32:52;99793.91;;;23.47;40.03
43312;BME280;30041;48.300;16.352;2023-02-19T04:35:17;99793.91;;;23.47;40.53
43312;BME280;30041;48.300;16.352;2023-02-19T04:37:43;99795.75;;;23.46;40.52
43312;BME280;30041;48.300;16.352;2023-02-19T04:40:09;99799.31;;;23.47;40.42
43312;BME280;30041;48.300;16.352;2023-02-19T04:42:35;99791.72;;;23.49;40.69
43312;BME280;30041;48.300;16.352;2023-02-19T04:45:00;99802.56;;;23.49;40.27
43312;BME280;30041;48.300;16.352;2023-02-19T04:47:26;99790.91;;;23.48;40.49
43312;BME280;30041;48.300;16.352;2023-02-19T04:49:51;99794.19;;;23.50;40.22
43312;BME280;30041;48.300;16.352;2023-02-19T04:52:17;99795.00;;;23.51;40.34
43312;BME280;30041;48.300;16.352;2023-02-19T04:54:42;99793.38;;;23.50;40.16
43312;BME280;30041;48.300;16.352;2023-02-19T04:57:08;99779.63;;;23.51;40.24
43312;BME280;30041;48.300;16.352;2023-02-19T04:59:33;99776.06;;;23.51;40.07
43312;BME280;30041;48.300;16.352;2023-02-19T05:01:59;99767.97;;;23.51;40.36
43312;BME280;30041;48.300;16.352;2023-02-19T05:04:24;99774.69;;;23.48;40.54
43312;BME280;30041;48.300;16.352;2023-02-19T05:06:50;99773.38;;;23.51;40.30
43312;BME280;30041;48.300;16.352;2023-02-19T05:09:15;99773.06;;;23.47;40.33
43312;BME280;30041;48.300;16.352;2023-02-19T05:11:41;99769.56;;;23.47;40.41
43312;BME280;30041;48.300;16.352;2023-02-19T05:14:06;99766.84;;;23.47;40.30
43312;BME280;30041;48.300;16.352;2023-02-19T05:16:32;99761.16;;;23.48;40.49
43312;BME280;30041;48.300;16.352;2023-02-19T05:18:59;99755.28;;;23.51;40.49
43312;BME280;30041;48.300;16.352;2023-02-19T05:21:28;99759.28;;;23.49;40.75
43312;BME280;30041;48.300;16.352;2023-02-19T05:23:53;99747.66;;;23.48;40.57
43312;BME280;30041;48.300;16.352;2023-02-19T05:26:21;99736.34;;;23.51;40.56
43312;BME280;30041;48.300;16.352;2023-02-19T05:28:49;99723.06;;;23.50;40.41
43312;BME280;30041;48.300;16.352;2023-02-19T05:31:15;99723.63;;;23.52;40.62
43312;BME280;30041;48.300;16.352;2023-02-19T05:33:41;99719.84;;;23.53;40.35
43312;BME280;30041;48.300;16.352;2023-02-19T05:36:09;99721.75;;;23.52;40.39
43312;BME280;30041;48.300;16.352;2023-02-19T05:38:36;99730.66;;;23.53;40.55
43312;BME280;30041;48.300;16.352;2023-02-19T05:41:15;99726.56;;;23.50;40.17
43312;BME280;30041;48.300;16.352;2023-02-19T05:43:43;99727.72;;;23.54;40.12
43312;BME280;30041;48.300;16.352;2023-02-19T05:46:10;99717.72;;;23.55;40.32
43312;BME280;30041;48.300;16.352;2023-02-19T05:48:35;99715.00;;;23.55;40.22
43312;BME280;30041;48.300;16.352;2023-02-19T05:51:03;99710.41;;;23.55;40.31
43312;BME280;30041;48.300;16.352;2023-02-19T05:53:29;99718.53;;;23.55;40.47
43312;BME280;30041;48.300;16.352;2023-02-19T05:55:55;99716.66;;;23.56;40.62
43312;BME280;30041;48.300;16.352;2023-02-19T05:58:20;99712.88;;;23.57;40.33
43312;BME280;30041;48.300;16.352;2023-02-19T06:00:46;99698.78;;;23.55;40.22
43312;BME280;30041;48.300;16.352;2023-02-19T06:03:11;99696.88;;;23.55;40.35
43312;BME280;30041;48.300;16.352;2023-02-19T06:05:37;99712.06;;;23.56;40.47
43312;BME280;30041;48.300;16.352;2023-02-19T06:08:02;99703.69;;;23.58;40.06
43312;BME280;30041;48.300;16.352;2023-02-19T06:10:28;99698.28;;;23.58;40.14
43312;BME280;30041;48.300;16.352;2023-02-19T06:12:54;99690.41;;;23.56;40.64
43312;BME280;30041;48.300;16.352;2023-02-19T06:15:19;99688.53;;;23.57;40.49
43312;BME280;30041;48.300;16.352;2023-02-19T06:17:45;99699.09;;;23.58;40.19
43312;BME280;30041;48.300;16.352;2023-02-19T06:20:11;99701.00;;;23.58;40.54
43312;BME280;30041;48.300;16.352;2023-02-19T06:22:36;99703.69;;;23.58;40.43
43312;BME280;30041;48.300;16.352;2023-02-19T06:25:02;99700.72;;;23.59;40.26
43312;BME280;30041;48.300;16.352;2023-02-19T06:27:27;99701.56;;;23.60;40.30
43312;BME280;30041;48.300;16.352;2023-02-19T06:29:53;99691.22;;;23.57;40.49
43312;BME280;30041;48.300;16.352;2023-02-19T06:32:18;99707.78;;;23.60;40.36
43312;BME280;30041;48.300;16.352;2023-02-19T06:34:44;99707.78;;;23.60;40.26
43312;BME280;30041;48.300;16.352;2023-02-19T06:37:09;99700.25;;;23.62;40.24
43312;BME280;30041;48.300;16.352;2023-02-19T06:39:35;99704.28;;;23.60;40.44
43312;BME280;30041;48.300;16.352;2023-02-19T06:42:00;99705.38;;;23.64;40.34
43312;BME280;30041;48.300;16.352;2023-02-19T06:44:26;99690.25;;;23.63;40.55
43312;BME280;30041;48.300;16.352;2023-02-19T06:46:53;99694.84;;;23.62;40.58
43312;BME280;30041;48.300;16.352;2023-02-19T06:49:19;99685.06;;;23.61;40.65
43312;BME280;30041;48.300;16.352;2023-02-19T06:51:45;99684.81;;;23.63;40.41
43312;BME280;30041;48.300;16.352;2023-02-19T06:54:10;99691.06;;;23.63;40.44
43312;BME280;30041;48.300;16.352;2023-02-19T06:56:38;99690.00;;;23.65;40.23
43312;BME280;30041;48.300;16.352;2023-02-19T06:59:06;99694.31;;;23.66;40.09
43312;BME280;30041;48.300;16.352;2023-02-19T07:01:33;99695.13;;;23.66;40.41
43312;BME280;30041;48.300;16.352;2023-02-19T07:03:58;99689.72;;;23.66;40.49
43312;BME280;30041;48.300;16.352;2023-02-19T07:06:24;99699.50;;;23.67;40.41
43312;BME280;30041;48.300;16.352;2023-02-19T07:08:51;99691.09;;;23.69;40.20
43312;BME280;30041;48.300;16.352;2023-02-19T07:11:18;99700.53;;;23.66;40.46
43312;BME280;30041;48.300;16.352;2023-02-19T07:13:44;99696.22;;;23.65;40.40
43312;BME280;30041;48.300;16.352;2023-02-19T07:16:10;99704.63;;;23.69;40.35
43312;BME280;30041;48.300;16.352;2023-02-19T07:18:37;99716.31;;;23.69;40.55
43312;BME280;30041;48.300;16.352;2023-02-19T07:21:06;99708.44;;;23.68;40.26
43312;BME280;30041;48.300;16.352;2023-02-19T07:23:32;99701.38;;;23.67;40.18
43312;BME280;30041;48.300;16.352;2023-02-19T07:25:58;99701.94;;;23.69;40.11
43312;BME280;30041;48.300;16.352;2023-02-19T07:28:23;99701.13;;;23.68;40.37
43312;BME280;30041;48.300;16.352;2023-02-19T07:30:49;99701.13;;;23.68;40.51
43312;BME280;30041;48.300;16.352;2023-02-19T07:33:14;99693.00;;;23.68;40.44
43312;BME280;30041;48.300;16.352;2023-02-19T07:35:46;99695.72;;;23.68;40.31
43312;BME280;30041;48.300;16.352;2023-02-19T07:38:18;99695.47;;;23.70;40.31
43312;BME280;30041;48.300;16.352;2023-02-19T07:40:58;99697.34;;;23.69;40.55
43312;BME280;30041;48.300;16.352;2023-02-19T07:43:27;99683.56;;;23.71;40.19
43312;BME280;30041;48.300;16.352;2023-02-19T07:45:53;99680.63;;;23.72;40.22
43312;BME280;30041;48.300;16.352;2023-02-19T07:48:19;99680.03;;;23.70;40.32
43312;BME280;30041;48.300;16.352;2023-02-19T07:50:54;99684.41;;;23.71;40.49
43312;BME280;30041;48.300;16.352;2023-02-19T07:53:21;99679.56;;;23.73;40.54
43312;BME280;30041;48.300;16.352;2023-02-19T07:55:47;99673.31;;;23.73;40.48
43312;BME280;30041;48.300;16.352;2023-02-19T07:58:12;99675.19;;;23.72;40.45
43312;BME280;30041;48.300;16.352;2023-02-19T08:00:38;99682.50;;;23.72;40.38
43312;BME280;30041;48.300;16.352;2023-02-19T08:03:04;99688.72;;;23.72;40.32
43312;BME280;30041;48.300;16.352;2023-02-19T08:05:32;99685.78;;;23.74;40.38
43312;BME280;30041;48.300;16.352;2023-02-19T08:07:59;99687.69;;;23.73;40.41
43312;BME280;30041;48.300;16.352;2023-02-19T08:10:25;99697.66;;;23.73;40.45
43312;BME280;30041;48.300;16.352;2023-02-19T08:12:57;99686.59;;;23.74;40.42
43312;BME280;30041;48.300;16.352;2023-02-19T08:15:23;99696.94;;;23.77;40.49
43312;BME280;30041;48.300;16.352;2023-02-19T08:17:48;99705.31;;;23.76;40.50
43312;BME280;30041;48.300;16.352;2023-02-19T08:20:14;99700.47;;;23.78;40.22
43312;BME280;30041;48.300;16.352;2023-02-19T08:22:39;99713.16;;;23.77;40.42
43312;BME280;30041;48.300;16.352;2023-02-19T08:25:05;99719.44;;;23.78;40.22
43312;BME280;30041;48.300;16.352;2023-02-19T08:27:31;99711.31;;;23.78;40.14
43312;BME280;30041;48.300;16.352;2023-02-19T08:29:56;99711.31;;;23.78;40.10
43312;BME280;30041;48.300;16.352;2023-02-19T08:32:22;99719.16;;;23.79;40.35
43312;BME280;30041;48.300;16.352;2023-02-19T08:34:47;99728.34;;;23.78;40.56
43312;BME280;30041;48.300;16.352;2023-02-19T08:37:13;99714.81;;;23.78;40.35
43312;BME280;30041;48.300;16.352;2023-02-19T08:39:38;99721.03;;;23.79;40.25
43312;BME280;30041;48.300;16.352;2023-02-19T08:42:04;99722.94;;;23.78;40.23
43312;BME280;30041;48.300;16.352;2023-02-19T08:44:29;99722.66;;;23.80;40.22
43312;BME280;30041;48.300;16.352;2023-02-19T08:46:56;99722.66;;;23.80;40.35
43312;BME280;30041;48.300;16.352;2023-02-19T08:49:25;99720.25;;;23.78;40.12
43312;BME280;30041;48.300;16.352;2023-02-19T08:51:50;99725.66;;;23.78;40.46
43312;BME280;30041;48.300;16.352;2023-02-19T08:54:16;99737.03;;;23.80;40.17
43312;BME280;30041;48.300;16.352;2023-02-19T08:56:41;99742.19;;;23.82;40.10
43312;BME280;30041;48.300;16.352;2023-02-19T08:59:07;99746.78;;;23.81;40.52
43312;BME280;30041;48.300;16.352;2023-02-19T09:01:32;99753.84;;;23.82;40.59
43312;BME280;30041;48.300;16.352;2023-02-19T09:03:58;99752.19;;;23.81;40.51
43312;BME280;30041;48.300;16.352;2023-02-19T09:06:23;99764.69;;;23.82;40.16
43312;BME280;30041;48.300;16.352;2023-02-19T09:08:49;99759.25;;;23.82;40.21
43312;BME280;30041;48.300;16.352;2023-02-19T09:11:14;99748.44;;;23.82;40.50
43312;BME280;30041;48.300;16.352;2023-02-19T09:13:41;99751.72;;;23.85;40.45
43312;BME280;30041;48.300;16.352;2023-02-19T09:16:07;99753.34;;;23.86;40.15
43312;BME280;30041;48.300;16.352;2023-02-19T09:18:32;99757.13;;;23.85;40.16
43312;BME280;30041;48.300;16.352;2023-02-19T09:21:03;99754.66;;;23.83;40.46
43312;BME280;30041;48.300;16.352;2023-02-19T09:23:31;99746.53;;;23.83;40.37
43312;BME280;30041;48.300;16.352;2023-02-19T09:25:58;99756.84;;;23.86;40.32
43312;BME280;30041;48.300;16.352;2023-02-19T09:28:24;99743.59;;;23.85;40.23
43312;BME280;30041;48.300;16.352;2023-02-19T09:30:49;99737.91;;;23.86;40.44
43312;BME280;30041;48.300;16.352;2023-02-19T09:33:15;99749.31;;;23.88;40.43
43312;BME280;30041;48.300;16.352;2023-02-19T09:35:40;99737.34;;;23.84;40.45
43312;BME280;30041;48.300;16.352;2023-02-19T09:38:06;99741.44;;;23.87;40.45
43312;BME280;30041;48.300;16.352;2023-02-19T09:40:31;99734.97;;;23.88;40.37
43312;BME280;30041;48.300;16.352;2023-02-19T09:42:59;99721.44;;;23.88;40.36
43312;BME280;30041;48.300;16.352;2023-02-19T09:45:25;99736.59;;;23.89;40.28
43312;BME280;30041;48.300;16.352;2023-02-19T09:47:56;99749.06;;;23.90;40.34
43312;BME280;30041;48.300;16.352;2023-02-19T09:50:31;99731.19;;;23.89;40.17
43312;BME280;30041;48.300;16.352;2023-02-19T09:53:02;99733.88;;;23.89;40.24
43312;BME280;30041;48.300;16.352;2023-02-19T09:55:34;99728.22;;;23.90;40.14
43312;BME280;30041;48.300;16.352;2023-02-19T09:58:05;99738.25;;;23.90;40.36
43312;BME280;30041;48.300;16.352;2023-02-19T10:00:33;99728.78;;;23.92;40.23
43312;BME280;30041;48.300;16.352;2023-02-19T10:03:05;99743.94;;;23.93;40.56
43312;BME280;30041;48.300;16.352;2023-02-19T10:05:35;99736.91;;;23.92;40.23
43312;BME280;30041;48.300;16.352;2023-02-19T10:08:06;99750.22;;;23.94;40.25
43312;BME280;30041;48.300;16.352;2023-02-19T10:10:35;99741.25;;;23.93;40.24
43312;BME280;30041;48.300;16.352;2023-02-19T10:13:14;99743.41;;;23.91;40.62
43312;BME280;30041;48.300;16.352;2023-02-19T10:18:14;99744.88;;;23.26;41.43
43312;BME280;30041;48.300;16.352;2023-02-19T10:20:40;99749.88;;;23.17;41.60
43312;BME280;30041;48.300;16.352;2023-02-19T10:23:07;99749.50;;;23.09;42.05
43312;BME280;30041;48.300;16.352;2023-02-19T10:25:36;99745.63;;;23.05;41.92
43312;BME280;30041;48.300;16.352;2023-02-19T10:28:09;99747.59;;;23.09;42.21
43312;BME280;30041;48.300;16.352;2023-02-19T10:30:37;99739.50;;;23.09;42.04
43312;BME280;30041;48.300;16.352;2023-02-19T10:33:11;99751.28;;;23.03;42.17
43312;BME280;30041;48.300;16.352;2023-02-19T10:35:57;99751.63;;;22.95;42.00
43312;BME280;30041;48.300;16.352;2023-02-19T10:38:29;99748.81;;;23.02;42.33
43312;BME280;30041;48.300;16.352;2023-02-19T10:41:02;99748.78;;;22.85;40.65
43312;BME280;30041;48.300;16.352;2023-02-19T10:43:31;99755.97;;;22.79;42.27
43312;BME280;30041;48.300;16.352;2023-02-19T10:46:01;99757.19;;;22.71;42.75
43312;BME280;30041;48.300;16.352;2023-02-19T10:48:31;99758.50;;;22.69;41.32
43312;BME280;30041;48.300;16.352;2023-02-19T10:51:01;99752.97;;;22.47;41.43
43312;BME280;30041;48.300;16.352;2023-02-19T10:56:29;99755.16;;;22.78;41.86
43312;BME280;30041;48.300;16.352;2023-02-19T10:59:13;99752.28;;;22.85;41.83
43312;BME280;30041;48.300;16.352;2023-02-19T11:01:59;99753.69;;;22.71;42.26
43312;BME280;30041;48.300;16.352;2023-02-19T11:04:27;99737.34;;;22.66;42.24
43312;BME280;30041;48.300;16.352;2023-02-19T11:06:53;99741.72;;;22.67;41.99
43312;BME280;30041;48.300;16.352;2023-02-19T11:09:36;99740.31;;;22.64;41.76
43312;BME280;30041;48.300;16.352;2023-02-19T11:12:02;99748.59;;;22.74;41.69
43312;BME280;30041;48.300;16.352;2023-02-19T11:14:30;99744.41;;;22.67;41.94
43312;BME280;30041;48.300;16.352;2023-02-19T11:16:57;99748.28;;;22.71;41.95
43312;BME280;30041;48.300;16.352;2023-02-19T11:21:51;99734.75;;;22.71;41.80
43312;BME280;30041;48.300;16.352;2023-02-19T11:24:32;99753.41;;;22.55;42.07
43312;BME280;30041;48.300;16.352;2023-02-19T11:27:01;99759.38;;;22.57;42.15
43312;BME280;30041;48.300;16.352;2023-02-19T11:29:28;99757.28;;;22.76;41.78
43312;BME280;30041;48.300;16.352;2023-02-19T11:31:55;99764.94;;;22.68;41.94
43312;BME280;30041;48.300;16.352;2023-02-19T11:37:06;99762.16;;;22.63;41.97
43312;BME280;30041;48.300;16.352;2023-02-19T11:39:31;99746.78;;;22.63;42.05
43312;BME280;30041;48.300;16.352;2023-02-19T11:47:27;99742.03;;;22.70;41.95
43312;BME280;30041;48.300;16.352;2023-02-19T12:01:39;99770.19;;;22.57;42.09
43312;BME280;30041;48.300;16.352;2023-02-19T12:04:33;99764.78;;;22.57;41.83
43312;BME280;30041;48.300;16.352;2023-02-19T12:07:22;99776.41;;;22.58;42.22
43312;BME280;30041;48.300;16.352;2023-02-19T12:21:17;99788.16;;;22.52;42.52
43312;BME280;30041;48.300;16.352;2023-02-19T12:24:28;99789.31;;;22.56;42.51
43312;BME280;30041;48.300;16.352;2023-02-19T12:27:10;99801.53;;;22.58;42.76
43312;BME280;30041;48.300;16.352;2023-02-19T12:30:02;99795.88;;;22.60;42.72
43312;BME280;30041;48.300;16.352;2023-02-19T12:33:15;99798.44;;;22.67;42.24
43312;BME280;30041;48.300;16.352;2023-02-19T12:36:11;99797.28;;;22.63;42.64
43312;BME280;30041;48.300;16.352;2023-02-19T12:38:44;99794.81;;;22.61;42.58
43312;BME280;30041;48.300;16.352;2023-02-19T12:43:50;99790.69;;;22.42;42.62
43312;BME280;30041;48.300;16.352;2023-02-19T12:46:21;99801.06;;;22.50;42.45
43312;BME280;30041;48.300;16.352;2023-02-19T12:52:31;99790.13;;;22.56;42.69
43312;BME280;30041;48.300;16.352;2023-02-19T12:55:03;99787.13;;;22.53;42.61
43312;BME280;30041;48.300;16.352;2023-02-19T12:57:36;99792.25;;;22.54;42.72
43312;BME280;30041;48.300;16.352;2023-02-19T13:00:26;99804.13;;;22.53;42.69
43312;BME280;30041;48.300;16.352;2023-02-19T13:03:20;99796.94;;;22.59;42.75
43312;BME280;30041;48.300;16.352;2023-02-19T13:05:45;99784.34;;;22.65;42.80
43312;BME280;30041;48.300;16.352;2023-02-19T13:08:31;99794.00;;;22.61;42.89
43312;BME280;30041;48.300;16.352;2023-02-19T13:11:04;99797.88;;;22.65;42.82
43312;BME280;30041;48.300;16.352;2023-02-19T13:13:33;99785.84;;;22.72;42.82
43312;BME280;30041;48.300;16.352;2023-02-19T13:16:05;99782.81;;;22.69;42.63
43312;BME280;30041;48.300;16.352;2023-02-19T13:18:36;99791.00;;;22.74;42.70
43312;BME280;30041;48.300;16.352;2023-02-19T13:21:04;99785.09;;;22.77;42.84
43312;BME280;30041;48.300;16.352;2023-02-19T13:23:32;99774.56;;;22.75;42.50
43312;BME280;30041;48.300;16.352;2023-02-19T13:31:56;99773.56;;;22.82;42.80
43312;BME280;30041;48.300;16.352;2023-02-19T13:37:16;99746.81;;;22.80;42.74
43312;BME280;30041;48.300;16.352;2023-02-19T13:39:51;99752.22;;;22.80;42.64
43312;BME280;30041;48.300;16.352;2023-02-19T13:42:30;99768.31;;;22.75;42.90
43312;BME280;30041;48.300;16.352;2023-02-19T13:44:57;99763.84;;;22.80;42.69
43312;BME280;30041;48.300;16.352;2023-02-19T13:50:30;99803.22;;;22.76;42.73
43312;BME280;30041;48.300;16.352;2023-02-19T13:52:58;99818.69;;;22.81;43.15
43312;BME280;30041;48.300;16.352;2023-02-19T13:55:53;99825.91;;;22.75;42.96
43312;BME280;30041;48.300;16.352;2023-02-19T13:58:38;99822.34;;;22.75;43.13
43312;BME280;30041;48.300;16.352;2023-02-19T14:01:16;99822.94;;;22.77;43.11
43312;BME280;30041;48.300;16.352;2023-02-19T14:06:08;99843.50;;;22.78;43.09
43312;BME280;30041;48.300;16.352;2023-02-19T14:08:56;99843.41;;;22.73;43.20
43312;BME280;30041;48.300;16.352;2023-02-19T14:14:33;99860.66;;;22.72;43.29
43312;BME280;30041;48.300;16.352;2023-02-19T14:33:33;99879.09;;;22.75;43.49
43312;BME280;30041;48.300;16.352;2023-02-19T14:36:05;99888.03;;;22.75;43.71
43312;BME280;30041;48.300;16.352;2023-02-19T14:38:45;99881.56;;;22.76;43.40
43312;BME280;30041;48.300;16.352;2023-02-19T14:41:13;99890.03;;;22.80;43.58
43312;BME280;30041;48.300;16.352;2023-02-19T14:43:40;99884.84;;;22.78;43.44
43312;BME280;30041;48.300;16.352;2023-02-19T14:46:14;99898.59;;;22.77;43.45
43312;BME280;30041;48.300;16.352;2023-02-19T14:48:46;99891.66;;;22.81;43.36